world map with ETZ marked

ETZ - Airport

This information may not be accurate or current and is not valid for navigation or flight planning. No warranty of fitness for any purpose is made or implied.

flag of Lorraineflag of France

Donate via PayPal

Additional information is available on the NEW Great Circle Mapper

Location
City:  Metz/Nancy/Lorraine, Lorraine, France
ICAO / IATA:LFJL / ETZ

Details
Type:Airport (Aerodrome, Airfield)
Use:Public/Civil
Latitude:48°58'42"N (48.978333)
Longitude:6°14'48"E (6.246667)
Elevation:870 ft (265 m)
Runways:1
Longest:8202 × 148 ft (2500 × 45 m)

Time
Timezone:UTC+1 (DST+4)
Local Time:

Weather
METAR:LFJL  041400Z AUTO 14005KT 110V170 CAVOK 04/M03 Q1026 NOSIG
TAF:LFJL  041100Z 0412/0512 15007KT CAVOK PROB30 TEMPO 0500/0512 4000 BR BKN006

Related Locations
Nearby:
Farthest:CHT: 12051 mi / 19395 km
Waitangi [Tuuta], CIT, NZ

Find:

   beyond  
but within

Other Information
Maps:
Links:
Sources:

  


 


Great Circle Mapper   Great Circle Mapper
Great Circle Mapper FAQ   Great Circle Mapper FAQ
  Karl's Home Page
KLSē   KLSē Home
   GC on Facebook
Airlines of the World   Airlines of the World
Donate via PayPal


Copyright © 2004-2022, Karl L. Swartz. All rights reserved.
All trademarks mentioned herein belong to their respective owners.

Please see credits for attribution and copyright information.

Karl Swartz <karl@kls2.com>
  Powered by FreeBSD
Valid HTML 4.01!
Labeled with ICRA
hCard Microformat
Geo Microformat